Time;durP1;ratioP1;P1;durP2;ratioP2;P2;SDS_P1;SDS_P2;PMS_P1;PMS_P2;Temp;Humidity;BMP_temperature;BMP_pressure;BME280_temperature;BME280_humidity;BME280_pressure;Samples;Min_cycle;Max_cycle;Signal;HPM_P1;HPM_P2
2023/01/31 00:03:32;;;;;;;;;;;;;;;17.95;30.12;96233.81;10416684;28;1966;-53
2023/01/31 00:08:32;;;;;;;;;;;;;;;17.93;30.31;96235.91;10423308;28;1906;-53
2023/01/31 00:13:32;;;;;;;;;;;;;;;17.87;30.56;96238.44;10419663;28;2018;-52
2023/01/31 00:18:33;;;;;;;;;;;;;;;17.86;30.39;96242.13;10419228;28;1930;-54
2023/01/31 00:23:33;;;;;;;;;;;;;;;17.84;30.20;96252.06;10415296;28;2026;-53
2023/01/31 00:28:33;;;;;;;;;;;;;;;17.82;30.26;96242.84;10421773;28;2033;-51
2023/01/31 00:33:34;;;;;;;;;;;;;;;17.79;30.30;96235.44;10417938;28;1976;-51
2023/01/31 00:38:34;;;;;;;;;;;;;;;17.76;30.31;96241.97;10415298;28;2070;-53
2023/01/31 00:43:34;;;;;;;;;;;;;;;17.75;30.22;96245.66;10422075;28;2041;-54
2023/01/31 00:48:34;;;;;;;;;;;;;;;17.73;30.28;96234.59;10415692;28;2152;-51
2023/01/31 00:53:35;;;;;;;;;;;;;;;17.70;30.29;96245.56;10420503;28;2127;-52
2023/01/31 00:58:35;;;;;;;;;;;;;;;17.69;30.45;96251.88;10422124;28;2085;-51
2023/01/31 01:03:35;;;;;;;;;;;;;;;17.63;30.42;96231.88;10420280;28;1974;-52
2023/01/31 01:08:36;;;;;;;;;;;;;;;17.65;30.47;96245.53;10421754;28;1982;-51
2023/01/31 01:13:36;;;;;;;;;;;;;;;17.61;30.43;96260.16;10410513;28;1965;-51
2023/01/31 01:18:37;;;;;;;;;;;;;;;17.58;30.71;96250.13;10421828;28;1954;-51
2023/01/31 01:23:37;;;;;;;;;;;;;;;17.59;30.33;96258.81;10415563;28;2002;-50
2023/01/31 01:28:37;;;;;;;;;;;;;;;17.57;30.39;96259.06;10417840;28;1980;-49
2023/01/31 01:33:37;;;;;;;;;;;;;;;17.55;30.42;96263.75;10414869;28;1966;-53
2023/01/31 01:38:39;;;;;;;;;;;;;;;17.51;30.44;96267.88;10417917;28;1977;-54
2023/01/31 01:43:39;;;;;;;;;;;;;;;17.50;30.56;96266.28;10417151;28;2085;-52
2023/01/31 01:48:39;;;;;;;;;;;;;;;17.48;30.44;96281.41;10413653;28;1975;-53
2023/01/31 01:53:40;;;;;;;;;;;;;;;17.47;30.46;96282.47;10420311;28;1986;-52
2023/01/31 01:58:49;;;;;;;;;;;;;;;17.43;30.58;96277.94;10420585;28;2167;-51
2023/01/31 02:03:50;;;;;;;;;;;;;;;17.44;30.44;96272.47;10421745;28;1969;-53
2023/01/31 02:08:50;;;;;;;;;;;;;;;17.43;30.36;96288.44;10425410;28;2069;-54
2023/01/31 02:13:58;;;;;;;;;;;;;;;17.40;30.48;96296.75;10397492;28;2136;-50
2023/01/31 02:18:59;;;;;;;;;;;;;;;17.38;30.43;96294.38;10425900;28;1985;-54
2023/01/31 02:24:11;;;;;;;;;;;;;;;17.37;30.32;96295.41;10417235;28;1954;-54
2023/01/31 02:29:30;;;;;;;;;;;;;;;17.34;30.56;96302.97;10404423;28;1973;-54
2023/01/31 02:34:34;;;;;;;;;;;;;;;17.31;30.42;96306.84;10421076;28;2014;-54
2023/01/31 02:39:37;;;;;;;;;;;;;;;17.31;30.46;96313.94;10419757;28;1974;-49
2023/01/31 02:44:58;;;;;;;;;;;;;;;17.26;30.70;96301.53;10402737;28;1978;-51
2023/01/31 02:50:10;;;;;;;;;;;;;;;17.25;30.58;96299.94;10431086;28;1915;-54
2023/01/31 03:00:32;;;;;;;;;;;;;;;17.21;30.62;96313.78;10415492;28;2060;-53
2023/01/31 03:05:32;;;;;;;;;;;;;;;17.19;30.42;96306.13;10421373;28;2001;-52
2023/01/31 03:10:35;;;;;;;;;;;;;;;17.17;30.47;96305.56;10418304;28;1974;-53
2023/01/31 03:21:13;;;;;;;;;;;;;;;17.19;30.23;96323.69;10419239;28;1983;-53
2023/01/31 03:26:14;;;;;;;;;;;;;;;17.13;30.54;96317.56;10402846;28;2022;-53
2023/01/31 03:31:18;;;;;;;;;;;;;;;17.13;30.70;96333.28;10404929;28;1993;-53
2023/01/31 03:36:25;;;;;;;;;;;;;;;17.15;30.55;96331.22;10405504;28;2187;-54
2023/01/31 03:41:30;;;;;;;;;;;;;;;17.14;30.64;96342.75;10425384;28;1941;-53
2023/01/31 03:46:32;;;;;;;;;;;;;;;17.13;30.83;96354.25;10417680;28;1974;-54
2023/01/31 03:51:33;;;;;;;;;;;;;;;17.11;30.89;96366.78;10408653;28;1934;-52
2023/01/31 03:56:41;;;;;;;;;;;;;;;17.10;30.86;96368.59;10420874;28;2089;-55
2023/01/31 04:01:42;;;;;;;;;;;;;;;17.12;30.86;96359.72;10414222;28;1915;-52
2023/01/31 04:06:42;;;;;;;;;;;;;;;17.14;30.85;96370.75;10421025;28;2057;-54
2023/01/31 04:11:42;;;;;;;;;;;;;;;17.15;30.69;96369.72;10422310;28;1970;-53
2023/01/31 04:16:43;;;;;;;;;;;;;;;17.15;30.81;96373.13;10406160;28;1952;-52
2023/01/31 04:21:43;;;;;;;;;;;;;;;17.16;30.86;96374.75;10418814;28;2084;-52
2023/01/31 04:26:43;;;;;;;;;;;;;;;17.18;30.77;96379.72;10425669;28;1975;-53
2023/01/31 04:31:44;;;;;;;;;;;;;;;17.20;30.69;96383.72;10418180;28;1945;-53
2023/01/31 04:36:44;;;;;;;;;;;;;;;17.22;30.73;96392.13;10418974;28;1994;-54
2023/01/31 04:41:44;;;;;;;;;;;;;;;17.24;30.67;96400.53;10418589;28;2008;-52
2023/01/31 04:46:47;;;;;;;;;;;;;;;17.27;30.51;96412.38;10429314;28;2004;-49
2023/01/31 04:51:47;;;;;;;;;;;;;;;17.27;30.53;96405.28;10428330;28;2031;-52
2023/01/31 04:56:48;;;;;;;;;;;;;;;17.27;30.55;96418.41;10436440;28;1982;-53
2023/01/31 05:01:48;;;;;;;;;;;;;;;17.30;30.58;96422.38;10428608;28;1953;-54
2023/01/31 05:06:48;;;;;;;;;;;;;;;17.30;30.51;96433.66;10423739;28;2010;-54
2023/01/31 05:11:48;;;;;;;;;;;;;;;17.31;30.74;96423.97;10421192;28;1915;-54
2023/01/31 05:16:49;;;;;;;;;;;;;;;17.36;31.12;96427.47;10414864;28;1977;-54
2023/01/31 05:21:58;;;;;;;;;;;;;;;17.40;31.05;96433.84;10421645;28;2021;-52
2023/01/31 05:27:00;;;;;;;;;;;;;;;17.48;30.96;96430.81;10419182;28;2037;-53
2023/01/31 05:32:00;;;;;;;;;;;;;;;17.56;30.84;96430.47;10416969;28;2056;-52
2023/01/31 05:37:01;;;;;;;;;;;;;;;17.64;30.74;96429.28;10397728;28;1973;-53
2023/01/31 05:42:01;;;;;;;;;;;;;;;17.70;30.82;96434.34;10424624;28;2105;-54
2023/01/31 05:47:01;;;;;;;;;;;;;;;17.75;30.67;96439.69;10435575;28;1981;-54
2023/01/31 05:52:01;;;;;;;;;;;;;;;17.82;30.62;96442.94;10434471;28;1923;-53
2023/01/31 05:57:02;;;;;;;;;;;;;;;17.86;30.45;96451.94;10416677;28;2014;-53
2023/01/31 06:02:02;;;;;;;;;;;;;;;17.92;30.41;96447.53;10430004;28;2099;-52
2023/01/31 06:07:02;;;;;;;;;;;;;;;17.94;30.53;96440.22;10421068;28;2123;-53
2023/01/31 06:12:03;;;;;;;;;;;;;;;17.99;30.47;96435.03;10422848;28;1991;-54
2023/01/31 06:17:03;;;;;;;;;;;;;;;18.02;30.35;96431.16;10423510;28;2029;-53
2023/01/31 06:22:04;;;;;;;;;;;;;;;18.04;30.30;96431.72;10425222;28;1965;-48
2023/01/31 06:27:04;;;;;;;;;;;;;;;18.09;30.43;96423.91;10417553;28;1970;-54
2023/01/31 06:32:05;;;;;;;;;;;;;;;18.11;30.45;96429.72;10399854;28;1928;-54
2023/01/31 06:37:07;;;;;;;;;;;;;;;18.11;30.40;96438.38;10424483;28;1887;-54
2023/01/31 06:42:07;;;;;;;;;;;;;;;18.17;30.54;96452.38;10417796;28;2062;-54
2023/01/31 06:47:07;;;;;;;;;;;;;;;18.19;30.47;96445.03;10415830;28;2017;-55
2023/01/31 06:52:08;;;;;;;;;;;;;;;18.20;30.53;96451.88;10417056;28;1982;-51
2023/01/31 06:57:08;;;;;;;;;;;;;;;18.25;30.98;96454.56;10422195;28;2051;-55
2023/01/31 07:02:09;;;;;;;;;;;;;;;18.30;30.99;96467.78;10404896;28;1994;-52
2023/01/31 07:07:09;;;;;;;;;;;;;;;18.35;31.11;96478.34;10434512;28;1921;-54
2023/01/31 07:12:09;;;;;;;;;;;;;;;18.36;31.01;96477.31;10419079;28;2004;-55
2023/01/31 07:17:09;;;;;;;;;;;;;;;18.39;30.82;96469.75;10418999;28;1919;-56
2023/01/31 07:22:10;;;;;;;;;;;;;;;18.42;31.02;96468.47;10422789;28;1939;-52
2023/01/31 07:27:13;;;;;;;;;;;;;;;18.45;30.75;96466.19;10424365;28;1984;-53
2023/01/31 07:32:13;;;;;;;;;;;;;;;18.46;30.78;96467.78;10418361;28;1971;-50
2023/01/31 07:37:13;;;;;;;;;;;;;;;18.49;30.72;96469.09;10430730;28;1987;-52
2023/01/31 07:42:14;;;;;;;;;;;;;;;18.49;30.90;96466.47;10423546;28;2006;-52
2023/01/31 07:47:14;;;;;;;;;;;;;;;18.52;30.48;96466.00;10420357;28;2155;-52
2023/01/31 07:52:14;;;;;;;;;;;;;;;18.54;30.52;96472.63;10422887;28;1911;-52
2023/01/31 07:57:17;;;;;;;;;;;;;;;18.55;30.47;96474.19;10428510;28;2091;-50
2023/01/31 08:07:37;;;;;;;;;;;;;;;18.60;30.31;96482.13;10417895;28;1962;-52
2023/01/31 08:12:37;;;;;;;;;;;;;;;18.61;30.50;96472.41;10435196;28;2138;-54
2023/01/31 08:17:37;;;;;;;;;;;;;;;18.60;30.39;96465.59;10423699;28;2057;-53
2023/01/31 08:22:37;;;;;;;;;;;;;;;18.57;30.43;96479.19;10421021;28;2058;-53
2023/01/31 08:27:38;;;;;;;;;;;;;;;18.55;30.26;96481.25;10419597;28;1973;-52
2023/01/31 08:32:38;;;;;;;;;;;;;;;18.54;30.40;96482.31;10426962;28;1934;-50
2023/01/31 08:37:38;;;;;;;;;;;;;;;18.52;30.30;96479.13;10416789;28;2073;-53
2023/01/31 08:42:38;;;;;;;;;;;;;;;18.49;30.22;96474.34;10415242;28;2043;-55
2023/01/31 08:47:39;;;;;;;;;;;;;;;18.45;30.66;96479.31;10421082;28;1977;-55
2023/01/31 08:52:39;;;;;;;;;;;;;;;18.44;30.59;96476.94;10419388;28;2028;-53
2023/01/31 08:57:39;;;;;;;;;;;;;;;18.37;30.63;96484.13;10427323;28;2049;-54
2023/01/31 09:02:39;;;;;;;;;;;;;;;18.35;30.55;96484.38;10416750;28;2215;-53
2023/01/31 09:07:40;;;;;;;;;;;;;;;18.34;30.36;96482.00;10426855;28;2006;-51
2023/01/31 09:12:40;;;;;;;;;;;;;;;18.34;30.18;96487.25;10422026;28;1968;-51
2023/01/31 09:17:41;;;;;;;;;;;;;;;18.32;30.34;96474.34;10417936;28;2053;-51
2023/01/31 09:22:41;;;;;;;;;;;;;;;18.28;30.33;96465.38;10415004;28;1939;-52
2023/01/31 09:27:42;;;;;;;;;;;;;;;18.28;30.16;96467.22;10420276;28;2085;-52
2023/01/31 09:32:43;;;;;;;;;;;;;;;18.26;30.37;96482.44;10419602;28;1963;-51
2023/01/31 09:37:43;;;;;;;;;;;;;;;18.22;30.31;96489.16;10421893;28;2065;-53
2023/01/31 09:42:43;;;;;;;;;;;;;;;18.19;30.37;96489.66;10414755;28;2016;-54
2023/01/31 09:47:48;;;;;;;;;;;;;;;18.13;30.54;96488.00;10424904;28;2013;-52
2023/01/31 09:52:48;;;;;;;;;;;;;;;18.08;30.64;96491.34;10417831;28;2199;-52
2023/01/31 09:57:51;;;;;;;;;;;;;;;18.03;30.82;96507.00;10426649;28;2108;-51
2023/01/31 10:02:51;;;;;;;;;;;;;;;18.00;30.82;96506.66;10412721;28;2065;-51
2023/01/31 10:08:04;;;;;;;;;;;;;;;17.96;30.94;96489.81;10420475;28;1930;-53
2023/01/31 10:13:05;;;;;;;;;;;;;;;17.91;30.87;96492.38;10422677;28;1962;-51
2023/01/31 10:18:24;;;;;;;;;;;;;;;17.85;30.95;96473.94;10401020;28;1941;-54
2023/01/31 10:23:28;;;;;;;;;;;;;;;17.82;30.56;96455.25;10417532;28;2077;-55
2023/01/31 10:28:45;;;;;;;;;;;;;;;17.79;30.76;96440.78;10398929;28;1982;-52
2023/01/31 10:33:50;;;;;;;;;;;;;;;17.76;30.70;96453.59;10407549;28;2005;-54
2023/01/31 10:38:53;;;;;;;;;;;;;;;17.72;30.84;96452.47;10426026;28;1982;-53
2023/01/31 10:43:56;;;;;;;;;;;;;;;17.68;30.81;96441.66;10423603;28;1926;-51
2023/01/31 10:48:57;;;;;;;;;;;;;;;17.67;30.77;96452.38;10436929;28;1990;-52
2023/01/31 10:54:00;;;;;;;;;;;;;;;17.64;30.71;96445.78;10427822;28;2109;-54
2023/01/31 10:59:01;;;;;;;;;;;;;;;17.61;30.77;96441.03;10428037;28;1941;-54
2023/01/31 11:04:02;;;;;;;;;;;;;;;17.58;30.83;96428.38;10434264;28;1933;-47
2023/01/31 11:09:02;;;;;;;;;;;;;;;17.54;30.88;96416.00;10424675;28;1978;-52
2023/01/31 11:14:06;;;;;;;;;;;;;;;17.51;30.74;96419.91;10424757;28;1997;-53
2023/01/31 11:19:14;;;;;;;;;;;;;;;17.48;30.75;96402.00;10434482;28;2115;-53
2023/01/31 11:24:15;;;;;;;;;;;;;;;17.45;30.89;96389.38;10442839;28;1938;-51
2023/01/31 11:29:17;;;;;;;;;;;;;;;17.43;30.92;96378.34;10464896;28;1934;-53
2023/01/31 11:34:18;;;;;;;;;;;;;;;17.41;30.86;96367.28;10464668;28;2001;-50
2023/01/31 11:39:31;;;;;;;;;;;;;;;17.38;30.83;96364.34;10465229;28;1954;-50
2023/01/31 11:44:32;;;;;;;;;;;;;;;17.36;30.69;96356.72;10474584;28;2007;-48
2023/01/31 11:49:32;;;;;;;;;;;;;;;17.35;30.68;96351.72;10465738;28;2104;-49
2023/01/31 11:54:33;;;;;;;;;;;;;;;17.33;30.95;96338.84;10466328;28;1962;-53
2023/01/31 11:59:33;;;;;;;;;;;;;;;17.32;30.73;96324.16;10463521;28;1963;-51
2023/01/31 12:04:33;;;;;;;;;;;;;;;17.29;30.73;96316.00;10478505;28;1941;-53
2023/01/31 12:09:41;;;;;;;;;;;;;;;17.27;30.68;96313.59;10469084;28;2117;-52
2023/01/31 12:14:41;;;;;;;;;;;;;;;17.24;30.86;96303.59;10481921;28;2075;-52
2023/01/31 12:19:42;;;;;;;;;;;;;;;17.23;30.73;96281.03;10466205;28;1981;-53
2023/01/31 12:25:00;;;;;;;;;;;;;;;17.19;30.83;96303.50;10429854;28;1966;-47
2023/01/31 12:30:01;;;;;;;;;;;;;;;17.19;30.72;96313.22;10416987;28;2029;-52
2023/01/31 12:35:01;;;;;;;;;;;;;;;17.18;30.62;96309.81;10424888;28;1930;-52
2023/01/31 12:40:04;;;;;;;;;;;;;;;17.15;30.83;96297.16;10418736;28;2029;-54
2023/01/31 12:45:08;;;;;;;;;;;;;;;17.14;30.73;96279.06;10411919;28;2041;-51
2023/01/31 12:50:28;;;;;;;;;;;;;;;17.10;30.87;96278.78;10420742;28;2046;-52
2023/01/31 12:55:47;;;;;;;;;;;;;;;17.10;30.79;96281.38;10401096;28;1931;-51
2023/01/31 13:00:50;;;;;;;;;;;;;;;17.08;30.88;96288.69;10418619;28;2082;-51
2023/01/31 13:05:52;;;;;;;;;;;;;;;17.06;31.10;96275.03;10414880;28;2058;-53
2023/01/31 13:10:58;;;;;;;;;;;;;;;17.07;31.06;96253.03;10402353;28;1918;-56
2023/01/31 13:16:04;;;;;;;;;;;;;;;17.07;30.95;96245.97;10424509;28;1959;-52
2023/01/31 13:21:05;;;;;;;;;;;;;;;17.08;30.96;96246.78;10396562;28;1978;-51
2023/01/31 13:26:05;;;;;;;;;;;;;;;17.13;30.94;96259.94;10419677;28;1978;-52
2023/01/31 13:31:10;;;;;;;;;;;;;;;17.14;31.14;96235.34;10417927;28;1961;-49
2023/01/31 13:36:23;;;;;;;;;;;;;;;17.16;31.05;96209.69;10417288;28;2040;-51
2023/01/31 13:41:23;;;;;;;;;;;;;;;17.17;30.86;96206.03;10413716;28;2038;-54
2023/01/31 13:46:26;;;;;;;;;;;;;;;17.17;30.95;96203.41;10412628;28;1997;-52
2023/01/31 13:51:45;;;;;;;;;;;;;;;17.17;30.88;96190.31;10397604;28;2108;-53
2023/01/31 13:56:48;;;;;;;;;;;;;;;17.20;30.89;96205.56;10422333;28;2041;-49
2023/01/31 14:01:48;;;;;;;;;;;;;;;17.20;30.88;96207.38;10423289;28;2167;-52
2023/01/31 14:06:55;;;;;;;;;;;;;;;17.20;30.89;96213.44;10394172;28;2080;-50
2023/01/31 14:11:56;;;;;;;;;;;;;;;17.23;30.69;96214.78;10415397;28;1954;-51
2023/01/31 14:16:56;;;;;;;;;;;;;;;17.23;30.57;96207.69;10401749;28;2009;-50
2023/01/31 14:22:03;;;;;;;;;;;;;;;17.24;30.79;96206.66;10419417;28;2018;-52
2023/01/31 14:27:08;;;;;;;;;;;;;;;17.27;30.68;96197.53;10418828;28;1998;-52
2023/01/31 14:32:12;;;;;;;;;;;;;;;17.29;30.54;96196.25;10395021;28;1964;-51
2023/01/31 14:37:17;;;;;;;;;;;;;;;17.29;30.55;96190.22;10413281;28;1899;-50
2023/01/31 14:42:24;;;;;;;;;;;;;;;17.33;30.54;96180.84;10398135;28;1951;-49
2023/01/31 14:47:43;;;;;;;;;;;;;;;17.35;30.57;96184.78;10402652;28;2132;-52
2023/01/31 14:52:52;;;;;;;;;;;;;;;17.38;30.53;96179.09;10421519;28;1970;-50
2023/01/31 14:57:54;;;;;;;;;;;;;;;17.45;30.67;96171.03;10413491;28;2112;-50
2023/01/31 15:02:59;;;;;;;;;;;;;;;17.53;30.68;96174.06;10400565;28;2025;-53
2023/01/31 15:08:11;;;;;;;;;;;;;;;17.62;30.55;96195.41;10415820;28;1954;-51
2023/01/31 15:13:50;;;;;;;;;;;;;;;17.68;30.41;96194.44;10420553;28;1986;-52
2023/01/31 15:19:03;;;;;;;;;;;;;;;17.73;30.39;96187.41;10271099;28;2088;-49
2023/01/31 15:24:03;;;;;;;;;;;;;;;17.80;30.42;96168.88;10411180;28;2333;-52
2023/01/31 15:29:04;;;;;;;;;;;;;;;17.84;30.33;96181.25;10468884;28;2078;-52
2023/01/31 15:34:06;;;;;;;;;;;;;;;17.89;30.21;96186.53;10456982;28;1945;-50
2023/01/31 15:39:24;;;;;;;;;;;;;;;17.94;30.15;96185.00;10457226;28;2642;-48
2023/01/31 15:44:26;;;;;;;;;;;;;;;17.97;30.18;96160.94;10459798;28;1933;-54
2023/01/31 15:49:33;;;;;;;;;;;;;;;18.00;30.16;96163.03;10463789;28;1977;-50
2023/01/31 15:54:33;;;;;;;;;;;;;;;18.02;30.08;96156.50;10461086;28;2038;-54
2023/01/31 15:59:34;;;;;;;;;;;;;;;18.09;29.91;96164.19;10462324;28;1954;-51
2023/01/31 16:04:34;;;;;;;;;;;;;;;18.10;29.99;96158.69;10464369;28;2040;-50
2023/01/31 16:09:34;;;;;;;;;;;;;;;18.14;30.05;96162.41;10458157;28;1906;-50
2023/01/31 16:14:35;;;;;;;;;;;;;;;18.15;29.99;96171.06;10466514;28;1914;-50
2023/01/31 16:19:35;;;;;;;;;;;;;;;18.18;29.94;96179.22;10455286;28;2049;-53
2023/01/31 16:24:35;;;;;;;;;;;;;;;18.21;30.02;96177.94;10464993;28;2035;-52
2023/01/31 16:29:40;;;;;;;;;;;;;;;18.23;29.79;96197.66;10470022;28;1967;-49
2023/01/31 16:34:40;;;;;;;;;;;;;;;18.25;29.86;96164.09;10473253;28;1974;-51
2023/01/31 16:39:41;;;;;;;;;;;;;;;18.27;29.98;96159.38;10457624;28;1953;-51
2023/01/31 16:44:42;;;;;;;;;;;;;;;18.29;29.72;96164.38;10466570;28;1962;-50
2023/01/31 16:49:43;;;;;;;;;;;;;;;18.32;29.94;96190.91;10463180;28;2091;-51
2023/01/31 16:54:50;;;;;;;;;;;;;;;18.36;29.72;96201.72;10455677;28;1989;-53
2023/01/31 16:59:51;;;;;;;;;;;;;;;18.38;29.81;96203.03;10463963;28;1935;-54
2023/01/31 17:04:52;;;;;;;;;;;;;;;18.43;29.87;96203.13;10468045;28;2012;-50
2023/01/31 17:09:53;;;;;;;;;;;;;;;18.48;29.99;96184.81;10455467;28;2089;-51
2023/01/31 17:14:57;;;;;;;;;;;;;;;18.53;29.98;96181.41;10469738;28;1920;-50
2023/01/31 17:19:57;;;;;;;;;;;;;;;18.55;30.24;96192.47;10467809;28;2100;-55
2023/01/31 17:24:57;;;;;;;;;;;;;;;18.60;29.91;96197.78;10456710;28;1978;-49
2023/01/31 17:29:58;;;;;;;;;;;;;;;18.68;29.95;96199.94;10465455;28;1987;-49
2023/01/31 17:34:58;;;;;;;;;;;;;;;18.89;29.82;96199.06;10462291;28;2066;-53
2023/01/31 17:40:00;;;;;;;;;;;;;;;18.96;30.74;96196.22;10458689;28;2053;-50
2023/01/31 17:45:00;;;;;;;;;;;;;;;19.04;31.46;96208.88;10462913;28;1942;-51
2023/01/31 17:50:00;;;;;;;;;;;;;;;19.10;31.48;96194.72;10460609;28;2060;-53
2023/01/31 17:55:00;;;;;;;;;;;;;;;19.07;31.47;96192.59;10459941;28;2067;-52
2023/01/31 18:00:01;;;;;;;;;;;;;;;19.10;31.01;96197.34;10476924;28;2032;-50
2023/01/31 18:05:01;;;;;;;;;;;;;;;19.09;30.63;96201.81;10472505;28;1966;-51
2023/01/31 18:10:02;;;;;;;;;;;;;;;19.07;30.35;96217.03;10471760;28;1996;-52
2023/01/31 18:15:02;;;;;;;;;;;;;;;19.07;30.07;96219.66;10475992;28;1922;-49
2023/01/31 18:20:02;;;;;;;;;;;;;;;19.07;29.97;96219.66;10463700;28;2057;-51
2023/01/31 18:25:04;;;;;;;;;;;;;;;19.08;29.77;96210.72;10438607;28;1983;-46
2023/01/31 18:30:04;;;;;;;;;;;;;;;19.09;29.84;96220.22;10411574;28;2016;-52
2023/01/31 18:35:05;;;;;;;;;;;;;;;19.09;29.78;96222.84;10426779;28;2034;-52
2023/01/31 18:40:06;;;;;;;;;;;;;;;19.09;30.01;96233.34;10405551;28;2092;-52
2023/01/31 18:45:06;;;;;;;;;;;;;;;19.13;30.51;96228.38;10423050;28;2074;-51
2023/01/31 18:50:07;;;;;;;;;;;;;;;19.11;29.81;96220.75;10431512;28;2064;-52
2023/01/31 18:55:07;;;;;;;;;;;;;;;19.11;29.64;96228.63;10434258;28;2027;-55
2023/01/31 19:00:08;;;;;;;;;;;;;;;19.11;29.83;96227.84;10428595;28;2203;-52
2023/01/31 19:05:08;;;;;;;;;;;;;;;19.16;30.47;96239.19;10438154;28;2107;-50
2023/01/31 19:10:08;;;;;;;;;;;;;;;19.18;30.68;96238.94;10434544;28;2020;-52
2023/01/31 19:15:10;;;;;;;;;;;;;;;19.21;30.61;96247.09;10409631;28;2142;-52
2023/01/31 19:20:11;;;;;;;;;;;;;;;19.21;30.47;96238.41;10424735;28;1982;-50
2023/01/31 19:25:11;;;;;;;;;;;;;;;19.21;30.89;96233.94;10425742;28;2101;-53
2023/01/31 19:30:11;;;;;;;;;;;;;;;19.24;30.79;96219.53;10431902;28;2061;-51
2023/01/31 19:35:12;;;;;;;;;;;;;;;19.25;30.64;96219.25;10425249;28;2066;-49
2023/01/31 19:40:12;;;;;;;;;;;;;;;19.25;30.64;96210.56;10422250;28;2029;-50
2023/01/31 19:45:12;;;;;;;;;;;;;;;19.22;30.62;96219.78;10430347;28;2314;-49
2023/01/31 19:50:13;;;;;;;;;;;;;;;19.24;30.33;96215.06;10430731;28;2099;-46
2023/01/31 19:55:13;;;;;;;;;;;;;;;19.24;30.47;96215.06;10414848;28;2060;-50
2023/01/31 20:00:13;;;;;;;;;;;;;;;19.22;30.31;96203.22;10438743;28;1983;-53
2023/01/31 20:05:13;;;;;;;;;;;;;;;19.23;29.61;96196.91;10434182;28;1936;-50
2023/01/31 20:10:14;;;;;;;;;;;;;;;19.20;29.91;96208.72;10442353;28;1979;-50
2023/01/31 20:15:14;;;;;;;;;;;;;;;19.21;29.39;96209.50;10439021;28;2002;-54
2023/01/31 20:20:14;;;;;;;;;;;;;;;19.18;29.81;96216.09;10426726;28;2149;-53
2023/01/31 20:25:15;;;;;;;;;;;;;;;19.17;29.54;96213.69;10422310;28;2045;-51
2023/01/31 20:30:18;;;;;;;;;;;;;;;19.19;29.40;96206.34;10436267;28;2045;-50
2023/01/31 20:35:18;;;;;;;;;;;;;;;19.19;29.38;96208.97;10425868;28;1990;-49
2023/01/31 20:40:18;;;;;;;;;;;;;;;19.20;29.04;96208.72;10427621;28;2069;-50
2023/01/31 20:45:19;;;;;;;;;;;;;;;19.20;29.25;96202.69;10399149;28;2022;-52
2023/01/31 20:50:19;;;;;;;;;;;;;;;19.16;29.69;96205.03;10435820;28;2087;-52
2023/01/31 20:55:19;;;;;;;;;;;;;;;19.11;30.39;96207.59;10428529;28;2053;-52
2023/01/31 21:00:20;;;;;;;;;;;;;;;19.11;30.29;96194.47;10420410;28;2189;-53
2023/01/31 21:05:22;;;;;;;;;;;;;;;19.07;30.37;96203.91;10425485;28;2106;-49
2023/01/31 21:10:22;;;;;;;;;;;;;;;19.00;30.97;96207.81;10414818;28;2204;-54
2023/01/31 21:15:23;;;;;;;;;;;;;;;19.00;30.92;96213.06;10428033;28;2014;-52
2023/01/31 21:20:23;;;;;;;;;;;;;;;18.92;31.36;96213.53;10422632;28;2109;-53
2023/01/31 21:25:23;;;;;;;;;;;;;;;18.85;31.21;96211.09;10429339;28;2052;-50
2023/01/31 21:30:23;;;;;;;;;;;;;;;18.78;31.18;96205.25;10432541;28;2101;-51
2023/01/31 21:35:25;;;;;;;;;;;;;;;18.73;31.11;96217.56;10433089;28;2046;-52
2023/01/31 21:40:25;;;;;;;;;;;;;;;18.67;31.22;96219.34;10427491;28;2107;-54
2023/01/31 21:45:41;;;;;;;;;;;;;;;18.61;31.37;96200.13;10410229;28;2053;-54
2023/01/31 21:50:41;;;;;;;;;;;;;;;18.57;31.08;96196.44;10427652;28;2042;-54
2023/01/31 21:55:41;;;;;;;;;;;;;;;18.52;31.37;96185.09;10428718;28;2066;-51
2023/01/31 22:00:42;;;;;;;;;;;;;;;18.44;31.54;96191.56;10427020;28;2248;-52
2023/01/31 22:05:43;;;;;;;;;;;;;;;18.40;31.49;96181.81;10428378;28;2101;-50
2023/01/31 22:10:43;;;;;;;;;;;;;;;18.33;31.49;96165.47;10428104;28;2069;-52
2023/01/31 22:15:43;;;;;;;;;;;;;;;18.30;31.47;96134.50;10418664;28;2097;-53
2023/01/31 22:20:44;;;;;;;;;;;;;;;18.25;31.71;96147.56;10420287;28;2130;-50
2023/01/31 22:25:44;;;;;;;;;;;;;;;18.21;31.66;96131.53;10407164;28;2057;-54
2023/01/31 22:30:51;;;;;;;;;;;;;;;18.15;31.69;96136.97;10420917;28;2045;-54
2023/01/31 22:35:51;;;;;;;;;;;;;;;18.09;31.83;96127.47;10432996;28;2174;-51
2023/01/31 22:40:54;;;;;;;;;;;;;;;18.06;31.93;96118.25;10435534;28;2166;-52
2023/01/31 22:45:55;;;;;;;;;;;;;;;18.02;31.72;96125.03;10445629;28;2169;-48
2023/01/31 22:50:59;;;;;;;;;;;;;;;17.98;31.83;96131.03;10417166;28;2143;-51
2023/01/31 22:56:03;;;;;;;;;;;;;;;17.95;31.93;96147.28;10436301;28;2105;-51
2023/01/31 23:01:29;;;;;;;;;;;;;;;17.91;31.75;96146.94;10439536;28;2185;-54
2023/01/31 23:06:30;;;;;;;;;;;;;;;17.85;31.94;96174.16;10428678;28;2053;-49
2023/01/31 23:11:30;;;;;;;;;;;;;;;17.82;31.94;96159.72;10426793;28;2109;-51
2023/01/31 23:21:50;;;;;;;;;;;;;;;17.76;31.72;96160.69;10446363;28;2012;-53
2023/01/31 23:26:50;;;;;;;;;;;;;;;17.71;31.81;96159.84;10471720;28;2087;-50
2023/01/31 23:31:50;;;;;;;;;;;;;;;17.69;31.91;96157.47;10449061;28;2267;-51
2023/01/31 23:36:50;;;;;;;;;;;;;;;17.66;31.76;96152.72;10468564;28;2024;-52
2023/01/31 23:41:51;;;;;;;;;;;;;;;17.66;31.59;96151.94;10476847;28;2046;-51
2023/01/31 23:46:51;;;;;;;;;;;;;;;17.61;31.63;96144.81;10466198;28;2168;-49
2023/01/31 23:51:51;;;;;;;;;;;;;;;17.58;31.60;96139.25;10463765;28;2064;-51
2023/01/31 23:56:52;;;;;;;;;;;;;;;17.56;31.51;96144.72;10465523;28;2119;-52
